sensor_id;sensor_type;location;lat;lon;timestamp;pressure;altitude;pressure_sealevel;temperature;humidity
74552;BME280;63025;55.472;38.432;2023-05-10T00:00:39;101269.09;;;4.99;63.64
74552;BME280;63025;55.472;38.432;2023-05-10T00:03:05;101267.56;;;4.97;64.31
74552;BME280;63025;55.472;38.432;2023-05-10T00:05:32;101264.91;;;4.97;64.93
74552;BME280;63025;55.472;38.432;2023-05-10T00:07:58;101267.13;;;5.01;64.64
74552;BME280;63025;55.472;38.432;2023-05-10T00:10:24;101275.53;;;5.06;64.72
74552;BME280;63025;55.472;38.432;2023-05-10T00:12:50;101276.66;;;5.13;64.06
74552;BME280;63025;55.472;38.432;2023-05-10T00:15:15;101270.72;;;5.20;64.09
74552;BME280;63025;55.472;38.432;2023-05-10T00:17:41;101263.16;;;5.25;63.87
74552;BME280;63025;55.472;38.432;2023-05-10T00:20:08;101271.84;;;5.27;64.15
74552;BME280;63025;55.472;38.432;2023-05-10T00:22:34;101274.91;;;5.32;64.06
74552;BME280;63025;55.472;38.432;2023-05-10T00:25:00;101291.47;;;5.35;64.21
74552;BME280;63025;55.472;38.432;2023-05-10T00:27:26;101281.06;;;5.32;63.84
74552;BME280;63025;55.472;38.432;2023-05-10T00:29:52;101274.69;;;5.15;64.18
74552;BME280;63025;55.472;38.432;2023-05-10T00:32:18;101278.50;;;5.03;64.25
74552;BME280;63025;55.472;38.432;2023-05-10T00:34:44;101278.91;;;5.08;64.75
74552;BME280;63025;55.472;38.432;2023-05-10T00:37:11;101279.03;;;5.16;64.94
74552;BME280;63025;55.472;38.432;2023-05-10T00:39:37;101279.41;;;5.22;64.51
74552;BME280;63025;55.472;38.432;2023-05-10T00:42:03;101279.69;;;5.28;64.36
74552;BME280;63025;55.472;38.432;2023-05-10T00:44:30;101257.56;;;5.18;64.64
74552;BME280;63025;55.472;38.432;2023-05-10T00:46:57;101269.50;;;5.14;64.90
74552;BME280;63025;55.472;38.432;2023-05-10T00:49:23;101279.72;;;5.19;65.54
74552;BME280;63025;55.472;38.432;2023-05-10T00:51:49;101279.97;;;5.25;65.31
74552;BME280;63025;55.472;38.432;2023-05-10T00:54:16;101275.75;;;5.32;65.45
74552;BME280;63025;55.472;38.432;2023-05-10T00:56:42;101281.63;;;5.36;65.36
74552;BME280;63025;55.472;38.432;2023-05-10T00:59:18;101270.44;;;5.23;65.34
74552;BME280;63025;55.472;38.432;2023-05-10T01:01:45;101273.38;;;5.20;65.21
74552;BME280;63025;55.472;38.432;2023-05-10T01:04:12;101271.84;;;5.27;65.13
74552;BME280;63025;55.472;38.432;2023-05-10T01:06:40;101266.56;;;5.07;65.40
74552;BME280;63025;55.472;38.432;2023-05-10T01:09:06;101275.66;;;5.14;65.81
74552;BME280;63025;55.472;38.432;2023-05-10T01:11:36;101264.97;;;5.24;65.41
74552;BME280;63025;55.472;38.432;2023-05-10T01:14:03;101264.25;;;5.32;65.52
74552;BME280;63025;55.472;38.432;2023-05-10T01:16:37;101254.97;;;5.36;65.47
74552;BME280;63025;55.472;38.432;2023-05-10T01:19:06;101257.38;;;5.39;65.29
74552;BME280;63025;55.472;38.432;2023-05-10T01:21:49;101254.69;;;5.39;65.03
74552;BME280;63025;55.472;38.432;2023-05-10T01:35:50;101256.84;;;5.26;65.51
74552;BME280;63025;55.472;38.432;2023-05-10T01:44:03;101263.72;;;5.28;65.97
74552;BME280;63025;55.472;38.432;2023-05-10T01:46:36;101253.09;;;5.19;65.87
74552;BME280;63025;55.472;38.432;2023-05-10T01:49:29;101253.53;;;5.04;66.66
74552;BME280;63025;55.472;38.432;2023-05-10T01:52:04;101262.34;;;5.14;66.92
74552;BME280;63025;55.472;38.432;2023-05-10T01:54:32;101269.31;;;5.25;66.44
74552;BME280;63025;55.472;38.432;2023-05-10T01:57:03;101277.19;;;5.27;66.26
74552;BME280;63025;55.472;38.432;2023-05-10T01:59:34;101268.47;;;5.25;66.27
74552;BME280;63025;55.472;38.432;2023-05-10T02:02:07;101261.19;;;5.27;66.43
74552;BME280;63025;55.472;38.432;2023-05-10T02:04:38;101244.88;;;5.30;66.95
74552;BME280;63025;55.472;38.432;2023-05-10T02:07:06;101260.69;;;5.41;66.57
74552;BME280;63025;55.472;38.432;2023-05-10T02:09:33;101260.66;;;5.50;66.42
74552;BME280;63025;55.472;38.432;2023-05-10T02:12:02;101265.28;;;5.58;66.28
74552;BME280;63025;55.472;38.432;2023-05-10T02:14:32;101259.34;;;5.64;66.23
74552;BME280;63025;55.472;38.432;2023-05-10T02:17:02;101256.28;;;5.59;66.35
74552;BME280;63025;55.472;38.432;2023-05-10T02:19:29;101255.31;;;5.60;66.05
74552;BME280;63025;55.472;38.432;2023-05-10T02:22:16;101250.78;;;5.70;65.77
74552;BME280;63025;55.472;38.432;2023-05-10T02:24:43;101266.88;;;5.78;65.83
74552;BME280;63025;55.472;38.432;2023-05-10T02:27:12;101251.78;;;5.87;65.85
74552;BME280;63025;55.472;38.432;2023-05-10T02:29:41;101253.91;;;5.83;65.67
74552;BME280;63025;55.472;38.432;2023-05-10T02:32:09;101248.44;;;5.85;65.57
74552;BME280;63025;55.472;38.432;2023-05-10T02:34:36;101245.34;;;5.89;65.63
74552;BME280;63025;55.472;38.432;2023-05-10T02:37:02;101246.56;;;5.95;65.78
74552;BME280;63025;55.472;38.432;2023-05-10T02:39:29;101246.00;;;6.01;65.53
74552;BME280;63025;55.472;38.432;2023-05-10T02:41:57;101251.25;;;6.11;65.78
74552;BME280;63025;55.472;38.432;2023-05-10T02:44:24;101249.50;;;6.19;65.80
74552;BME280;63025;55.472;38.432;2023-05-10T02:46:53;101242.72;;;6.25;65.26
74552;BME280;63025;55.472;38.432;2023-05-10T02:49:21;101243.41;;;6.27;65.38
74552;BME280;63025;55.472;38.432;2023-05-10T02:51:55;101255.31;;;6.33;65.39
74552;BME280;63025;55.472;38.432;2023-05-10T02:54:27;101246.38;;;6.42;64.84
74552;BME280;63025;55.472;38.432;2023-05-10T02:57:00;101251.25;;;6.46;64.53
74552;BME280;63025;55.472;38.432;2023-05-10T02:59:28;101240.28;;;6.49;64.54
74552;BME280;63025;55.472;38.432;2023-05-10T03:01:54;101248.66;;;6.54;64.18
74552;BME280;63025;55.472;38.432;2023-05-10T03:04:20;101239.06;;;6.61;64.38
74552;BME280;63025;55.472;38.432;2023-05-10T03:06:46;101236.44;;;6.70;64.39
74552;BME280;63025;55.472;38.432;2023-05-10T03:09:13;101245.50;;;6.77;64.22
74552;BME280;63025;55.472;38.432;2023-05-10T03:12:18;101241.59;;;6.89;64.09
74552;BME280;63025;55.472;38.432;2023-05-10T03:15:13;101242.31;;;6.99;64.33
74552;BME280;63025;55.472;38.432;2023-05-10T03:18:00;101242.38;;;7.07;64.06
74552;BME280;63025;55.472;38.432;2023-05-10T03:20:51;101251.13;;;7.17;64.01
74552;BME280;63025;55.472;38.432;2023-05-10T03:23:30;101240.66;;;7.24;63.67
74552;BME280;63025;55.472;38.432;2023-05-10T03:26:00;101243.47;;;7.22;63.43
74552;BME280;63025;55.472;38.432;2023-05-10T03:28:29;101231.31;;;7.28;63.50
74552;BME280;63025;55.472;38.432;2023-05-10T03:30:57;101230.69;;;7.34;63.26
74552;BME280;63025;55.472;38.432;2023-05-10T03:33:25;101235.06;;;7.43;62.88
74552;BME280;63025;55.472;38.432;2023-05-10T03:35:52;101236.63;;;7.54;63.03
74552;BME280;63025;55.472;38.432;2023-05-10T03:38:18;101247.72;;;7.67;62.69
74552;BME280;63025;55.472;38.432;2023-05-10T03:40:45;101238.38;;;7.71;62.69
74552;BME280;63025;55.472;38.432;2023-05-10T03:43:11;101236.06;;;7.76;62.51
74552;BME280;63025;55.472;38.432;2023-05-10T03:45:37;101242.28;;;7.85;62.64
74552;BME280;63025;55.472;38.432;2023-05-10T03:48:04;101247.31;;;7.96;62.24
74552;BME280;63025;55.472;38.432;2023-05-10T03:50:30;101252.53;;;8.05;62.48
74552;BME280;63025;55.472;38.432;2023-05-10T03:52:56;101245.19;;;8.07;62.33
74552;BME280;63025;55.472;38.432;2023-05-10T03:55:23;101253.38;;;8.14;61.43
74552;BME280;63025;55.472;38.432;2023-05-10T03:57:50;101246.88;;;8.25;61.44
74552;BME280;63025;55.472;38.432;2023-05-10T04:00:16;101247.75;;;8.33;61.55
74552;BME280;63025;55.472;38.432;2023-05-10T04:02:42;101244.44;;;8.39;61.29
74552;BME280;63025;55.472;38.432;2023-05-10T04:05:12;101238.91;;;8.49;61.17
74552;BME280;63025;55.472;38.432;2023-05-10T04:07:38;101246.63;;;8.60;60.62
74552;BME280;63025;55.472;38.432;2023-05-10T04:10:04;101242.28;;;8.67;60.34
74552;BME280;63025;55.472;38.432;2023-05-10T04:12:31;101235.91;;;8.76;61.09
74552;BME280;63025;55.472;38.432;2023-05-10T04:14:57;101240.91;;;8.88;61.20
74552;BME280;63025;55.472;38.432;2023-05-10T04:17:23;101241.91;;;9.03;61.09
74552;BME280;63025;55.472;38.432;2023-05-10T04:19:49;101232.16;;;9.10;59.57
74552;BME280;63025;55.472;38.432;2023-05-10T04:22:18;101238.84;;;9.14;58.35
74552;BME280;63025;55.472;38.432;2023-05-10T04:24:44;101233.81;;;9.27;57.76
74552;BME280;63025;55.472;38.432;2023-05-10T04:27:10;101232.28;;;9.33;57.35
74552;BME280;63025;55.472;38.432;2023-05-10T04:29:37;101229.25;;;9.36;56.76
74552;BME280;63025;55.472;38.432;2023-05-10T04:32:04;101228.41;;;9.43;56.10
74552;BME280;63025;55.472;38.432;2023-05-10T04:34:30;101227.00;;;9.55;55.34
74552;BME280;63025;55.472;38.432;2023-05-10T04:36:56;101214.41;;;9.64;56.03
74552;BME280;63025;55.472;38.432;2023-05-10T04:39:22;101229.78;;;9.70;55.56
74552;BME280;63025;55.472;38.432;2023-05-10T04:41:47;101223.72;;;9.76;55.54
74552;BME280;63025;55.472;38.432;2023-05-10T04:44:13;101217.31;;;9.85;55.14
74552;BME280;63025;55.472;38.432;2023-05-10T04:46:39;101221.63;;;9.94;55.29
74552;BME280;63025;55.472;38.432;2023-05-10T04:49:05;101222.25;;;10.05;55.08
74552;BME280;63025;55.472;38.432;2023-05-10T04:51:31;101219.50;;;10.13;54.16
74552;BME280;63025;55.472;38.432;2023-05-10T04:53:58;101222.16;;;10.21;54.03
74552;BME280;63025;55.472;38.432;2023-05-10T04:56:24;101227.34;;;10.22;53.76
74552;BME280;63025;55.472;38.432;2023-05-10T04:58:50;101218.53;;;10.37;53.68
74552;BME280;63025;55.472;38.432;2023-05-10T05:01:16;101219.59;;;10.50;54.19
74552;BME280;63025;55.472;38.432;2023-05-10T05:03:42;101204.84;;;10.69;53.93
74552;BME280;63025;55.472;38.432;2023-05-10T05:06:08;101216.34;;;10.78;52.80
74552;BME280;63025;55.472;38.432;2023-05-10T05:08:34;101214.34;;;10.94;52.41
74552;BME280;63025;55.472;38.432;2023-05-10T05:11:00;101217.91;;;11.10;52.20
74552;BME280;63025;55.472;38.432;2023-05-10T05:13:26;101213.34;;;11.25;52.15
74552;BME280;63025;55.472;38.432;2023-05-10T05:15:52;101203.44;;;11.40;52.02
74552;BME280;63025;55.472;38.432;2023-05-10T05:18:19;101204.34;;;11.47;51.09
74552;BME280;63025;55.472;38.432;2023-05-10T05:20:45;101205.44;;;11.53;50.46
74552;BME280;63025;55.472;38.432;2023-05-10T05:23:11;101200.69;;;11.55;50.24
74552;BME280;63025;55.472;38.432;2023-05-10T05:25:37;101208.41;;;11.72;50.02
74552;BME280;63025;55.472;38.432;2023-05-10T05:28:03;101211.09;;;11.87;49.84
74552;BME280;63025;55.472;38.432;2023-05-10T05:30:29;101205.09;;;12.06;49.16
74552;BME280;63025;55.472;38.432;2023-05-10T05:32:55;101212.63;;;12.11;48.58
74552;BME280;63025;55.472;38.432;2023-05-10T05:35:21;101206.72;;;12.22;48.27
74552;BME280;63025;55.472;38.432;2023-05-10T05:37:46;101209.56;;;12.35;48.24
74552;BME280;63025;55.472;38.432;2023-05-10T05:40:13;101210.97;;;12.53;47.44
74552;BME280;63025;55.472;38.432;2023-05-10T05:42:39;101201.13;;;12.66;46.59
74552;BME280;63025;55.472;38.432;2023-05-10T05:45:06;101204.59;;;12.88;46.22
74552;BME280;63025;55.472;38.432;2023-05-10T05:47:33;101199.16;;;13.09;46.03
74552;BME280;63025;55.472;38.432;2023-05-10T05:49:59;101194.16;;;13.34;45.93
74552;BME280;63025;55.472;38.432;2023-05-10T05:52:25;101201.53;;;13.60;45.69
74552;BME280;63025;55.472;38.432;2023-05-10T05:54:51;101192.28;;;13.76;44.61
74552;BME280;63025;55.472;38.432;2023-05-10T05:57:17;101193.78;;;13.91;44.48
74552;BME280;63025;55.472;38.432;2023-05-10T05:59:43;101185.50;;;14.13;44.29
74552;BME280;63025;55.472;38.432;2023-05-10T06:02:10;101187.84;;;14.36;43.49
74552;BME280;63025;55.472;38.432;2023-05-10T06:04:36;101190.38;;;14.44;42.77
74552;BME280;63025;55.472;38.432;2023-05-10T06:07:02;101183.53;;;14.61;42.71
74552;BME280;63025;55.472;38.432;2023-05-10T06:09:29;101180.81;;;14.81;41.71
74552;BME280;63025;55.472;38.432;2023-05-10T06:11:55;101183.09;;;15.03;40.38
74552;BME280;63025;55.472;38.432;2023-05-10T06:14:21;101176.38;;;15.19;38.87
74552;BME280;63025;55.472;38.432;2023-05-10T06:16:47;101166.56;;;15.31;37.97
74552;BME280;63025;55.472;38.432;2023-05-10T06:19:13;101176.53;;;15.57;38.63
74552;BME280;63025;55.472;38.432;2023-05-10T06:21:39;101175.44;;;15.65;37.20
74552;BME280;63025;55.472;38.432;2023-05-10T06:24:05;101174.63;;;15.58;35.70
74552;BME280;63025;55.472;38.432;2023-05-10T06:26:33;101173.16;;;15.62;35.79
74552;BME280;63025;55.472;38.432;2023-05-10T06:28:59;101182.00;;;15.89;35.86
74552;BME280;63025;55.472;38.432;2023-05-10T06:31:25;101180.41;;;16.12;36.12
74552;BME280;63025;55.472;38.432;2023-05-10T06:33:51;101178.03;;;16.29;35.57
74552;BME280;63025;55.472;38.432;2023-05-10T06:36:18;101175.19;;;16.42;34.46
74552;BME280;63025;55.472;38.432;2023-05-10T06:38:43;101176.22;;;16.48;34.29
74552;BME280;63025;55.472;38.432;2023-05-10T06:41:09;101176.97;;;16.55;33.86
74552;BME280;63025;55.472;38.432;2023-05-10T06:43:36;101175.25;;;16.67;33.63
74552;BME280;63025;55.472;38.432;2023-05-10T06:46:05;101177.03;;;16.80;33.69
74552;BME280;63025;55.472;38.432;2023-05-10T06:48:32;101172.91;;;16.96;33.37
74552;BME280;63025;55.472;38.432;2023-05-10T06:50:58;101167.78;;;17.06;33.25
74552;BME280;63025;55.472;38.432;2023-05-10T06:53:24;101172.91;;;17.14;33.06
74552;BME280;63025;55.472;38.432;2023-05-10T06:55:51;101168.91;;;17.16;32.57
74552;BME280;63025;55.472;38.432;2023-05-10T06:58:17;101160.41;;;17.13;32.25
74552;BME280;63025;55.472;38.432;2023-05-10T07:00:43;101143.50;;;17.29;32.38
74552;BME280;63025;55.472;38.432;2023-05-10T07:03:11;101151.56;;;17.54;32.26
74552;BME280;63025;55.472;38.432;2023-05-10T07:05:37;101145.91;;;17.74;32.08
74552;BME280;63025;55.472;38.432;2023-05-10T07:08:03;101152.97;;;17.93;31.76
74552;BME280;63025;55.472;38.432;2023-05-10T07:10:30;101145.44;;;18.07;30.58
74552;BME280;63025;55.472;38.432;2023-05-10T07:12:56;101148.19;;;18.18;29.84
74552;BME280;63025;55.472;38.432;2023-05-10T07:15:22;101143.84;;;18.29;29.62
74552;BME280;63025;55.472;38.432;2023-05-10T07:17:48;101150.41;;;18.51;29.22
74552;BME280;63025;55.472;38.432;2023-05-10T07:20:14;101149.25;;;18.59;28.93
74552;BME280;63025;55.472;38.432;2023-05-10T07:22:40;101147.50;;;18.64;28.53
74552;BME280;63025;55.472;38.432;2023-05-10T07:25:07;101147.84;;;18.68;27.92
74552;BME280;63025;55.472;38.432;2023-05-10T07:27:33;101142.50;;;18.73;27.40
74552;BME280;63025;55.472;38.432;2023-05-10T07:29:59;101145.94;;;18.80;26.65
74552;BME280;63025;55.472;38.432;2023-05-10T07:32:26;101136.72;;;18.58;26.33
74552;BME280;63025;55.472;38.432;2023-05-10T07:34:52;101132.22;;;18.75;26.07
74552;BME280;63025;55.472;38.432;2023-05-10T07:37:18;101130.56;;;18.86;25.82
74552;BME280;63025;55.472;38.432;2023-05-10T07:39:44;101131.28;;;18.58;24.74
74552;BME280;63025;55.472;38.432;2023-05-10T07:42:10;101130.16;;;18.36;25.33
74552;BME280;63025;55.472;38.432;2023-05-10T07:44:36;101126.59;;;18.35;25.57
74552;BME280;63025;55.472;38.432;2023-05-10T07:47:02;101125.19;;;18.56;25.47
74552;BME280;63025;55.472;38.432;2023-05-10T07:49:28;101130.72;;;18.49;25.31
74552;BME280;63025;55.472;38.432;2023-05-10T07:51:54;101125.34;;;18.61;25.83
74552;BME280;63025;55.472;38.432;2023-05-10T07:54:20;101126.19;;;18.73;25.57
74552;BME280;63025;55.472;38.432;2023-05-10T07:56:47;101119.75;;;18.79;24.96
74552;BME280;63025;55.472;38.432;2023-05-10T07:59:17;101110.16;;;19.12;25.17
74552;BME280;63025;55.472;38.432;2023-05-10T08:01:44;101112.63;;;19.13;24.48
74552;BME280;63025;55.472;38.432;2023-05-10T08:04:10;101111.72;;;19.48;24.87
74552;BME280;63025;55.472;38.432;2023-05-10T08:06:38;101116.34;;;19.47;24.53
74552;BME280;63025;55.472;38.432;2023-05-10T08:09:04;101114.88;;;19.28;24.55
74552;BME280;63025;55.472;38.432;2023-05-10T08:11:30;101105.34;;;19.42;24.92
74552;BME280;63025;55.472;38.432;2023-05-10T08:13:56;101106.31;;;19.36;24.76
74552;BME280;63025;55.472;38.432;2023-05-10T08:16:22;101098.03;;;19.31;25.11
74552;BME280;63025;55.472;38.432;2023-05-10T08:18:48;101103.53;;;19.08;24.94
74552;BME280;63025;55.472;38.432;2023-05-10T08:21:16;101098.94;;;18.73;25.14
74552;BME280;63025;55.472;38.432;2023-05-10T08:23:43;101088.59;;;18.52;25.55
74552;BME280;63025;55.472;38.432;2023-05-10T08:26:09;101092.88;;;18.48;26.04
74552;BME280;63025;55.472;38.432;2023-05-10T08:28:36;101091.56;;;18.27;25.94
74552;BME280;63025;55.472;38.432;2023-05-10T08:31:02;101092.00;;;18.12;26.02
74552;BME280;63025;55.472;38.432;2023-05-10T08:33:28;101090.06;;;18.01;25.67
74552;BME280;63025;55.472;38.432;2023-05-10T08:35:54;101098.78;;;17.61;25.29
74552;BME280;63025;55.472;38.432;2023-05-10T08:38:20;101090.00;;;17.59;25.16
74552;BME280;63025;55.472;38.432;2023-05-10T08:40:48;101078.38;;;17.71;25.48
74552;BME280;63025;55.472;38.432;2023-05-10T08:43:16;101087.94;;;18.03;24.95
74552;BME280;63025;55.472;38.432;2023-05-10T08:45:43;101086.47;;;19.00;25.32
74552;BME280;63025;55.472;38.432;2023-05-10T08:48:13;101084.69;;;19.18;24.55
74552;BME280;63025;55.472;38.432;2023-05-10T08:50:40;101076.28;;;19.08;24.77
74552;BME280;63025;55.472;38.432;2023-05-10T08:53:10;101077.72;;;18.98;25.01
74552;BME280;63025;55.472;38.432;2023-05-10T08:55:37;101074.38;;;19.20;24.93
74552;BME280;63025;55.472;38.432;2023-05-10T08:58:05;101080.03;;;20.87;23.56
74552;BME280;63025;55.472;38.432;2023-05-10T09:00:32;101072.81;;;20.98;22.72
74552;BME280;63025;55.472;38.432;2023-05-10T09:02:58;101069.50;;;20.57;22.22
74552;BME280;63025;55.472;38.432;2023-05-10T09:05:26;101070.31;;;20.07;23.05
74552;BME280;63025;55.472;38.432;2023-05-10T09:07:52;101072.13;;;19.57;23.03
74552;BME280;63025;55.472;38.432;2023-05-10T09:10:19;101070.91;;;19.64;23.82
74552;BME280;63025;55.472;38.432;2023-05-10T09:12:46;101069.00;;;19.65;24.29
74552;BME280;63025;55.472;38.432;2023-05-10T09:15:15;101062.25;;;19.67;24.14
74552;BME280;63025;55.472;38.432;2023-05-10T09:17:43;101057.44;;;19.74;24.40
74552;BME280;63025;55.472;38.432;2023-05-10T09:20:09;101066.69;;;19.73;24.42
74552;BME280;63025;55.472;38.432;2023-05-10T09:22:35;101063.66;;;19.70;23.69
74552;BME280;63025;55.472;38.432;2023-05-10T09:25:10;101056.88;;;19.72;23.19
74552;BME280;63025;55.472;38.432;2023-05-10T09:27:40;101051.91;;;19.69;22.81
74552;BME280;63025;55.472;38.432;2023-05-10T09:30:08;101043.97;;;19.68;23.30
74552;BME280;63025;55.472;38.432;2023-05-10T09:32:42;101051.81;;;19.93;22.55
74552;BME280;63025;55.472;38.432;2023-05-10T09:35:10;101048.97;;;20.04;22.54
74552;BME280;63025;55.472;38.432;2023-05-10T09:37:36;101036.84;;;21.06;21.92
74552;BME280;63025;55.472;38.432;2023-05-10T09:40:06;101034.72;;;22.10;22.13
74552;BME280;63025;55.472;38.432;2023-05-10T09:42:34;101028.16;;;22.95;21.15
74552;BME280;63025;55.472;38.432;2023-05-10T09:45:04;101027.84;;;23.59;20.74
74552;BME280;63025;55.472;38.432;2023-05-10T09:47:33;101027.34;;;23.88;20.23
74552;BME280;63025;55.472;38.432;2023-05-10T09:50:00;101020.47;;;23.90;20.17
74552;BME280;63025;55.472;38.432;2023-05-10T09:52:53;101021.72;;;23.37;19.80
74552;BME280;63025;55.472;38.432;2023-05-10T09:55:43;101017.28;;;23.21;19.82
74552;BME280;63025;55.472;38.432;2023-05-10T09:58:08;101011.69;;;22.90;19.64
74552;BME280;63025;55.472;38.432;2023-05-10T10:00:39;101016.34;;;23.72;19.47
74552;BME280;63025;55.472;38.432;2023-05-10T10:03:12;101014.44;;;23.83;19.48
74552;BME280;63025;55.472;38.432;2023-05-10T10:05:40;101001.44;;;23.43;19.66
74552;BME280;63025;55.472;38.432;2023-05-10T10:08:08;101003.88;;;23.24;19.45
74552;BME280;63025;55.472;38.432;2023-05-10T10:10:34;101011.56;;;23.32;20.18
74552;BME280;63025;55.472;38.432;2023-05-10T10:13:02;101002.16;;;23.08;19.52
74552;BME280;63025;55.472;38.432;2023-05-10T10:15:28;101004.41;;;23.21;19.54
74552;BME280;63025;55.472;38.432;2023-05-10T10:17:54;101003.53;;;23.16;19.20
74552;BME280;63025;55.472;38.432;2023-05-10T10:20:22;100997.22;;;23.10;19.49
74552;BME280;63025;55.472;38.432;2023-05-10T10:22:48;100990.88;;;22.94;19.13
74552;BME280;63025;55.472;38.432;2023-05-10T10:25:16;100993.97;;;22.66;19.30
74552;BME280;63025;55.472;38.432;2023-05-10T10:30:48;100984.44;;;21.94;19.48
74552;BME280;63025;55.472;38.432;2023-05-10T10:33:39;100984.94;;;21.86;19.98
74552;BME280;63025;55.472;38.432;2023-05-10T10:36:06;100983.59;;;22.21;20.34
74552;BME280;63025;55.472;38.432;2023-05-10T10:41:35;100983.72;;;22.41;20.45
74552;BME280;63025;55.472;38.432;2023-05-10T10:55:19;100966.59;;;23.49;18.41
74552;BME280;63025;55.472;38.432;2023-05-10T11:02:53;100963.53;;;23.25;18.95
74552;BME280;63025;55.472;38.432;2023-05-10T11:08:07;100964.16;;;22.75;18.56
74552;BME280;63025;55.472;38.432;2023-05-10T11:10:34;100959.44;;;22.65;18.65
74552;BME280;63025;55.472;38.432;2023-05-10T11:13:02;100947.75;;;22.32;19.32
74552;BME280;63025;55.472;38.432;2023-05-10T11:17:56;100940.38;;;22.33;20.44
74552;BME280;63025;55.472;38.432;2023-05-10T11:20:22;100947.28;;;22.41;20.30
74552;BME280;63025;55.472;38.432;2023-05-10T11:22:54;100944.63;;;22.09;19.79
74552;BME280;63025;55.472;38.432;2023-05-10T11:25:26;100940.50;;;22.06;20.34
74552;BME280;63025;55.472;38.432;2023-05-10T11:27:52;100932.34;;;21.84;20.18
74552;BME280;63025;55.472;38.432;2023-05-10T11:30:18;100934.50;;;22.09;20.22
74552;BME280;63025;55.472;38.432;2023-05-10T11:32:45;100925.41;;;22.04;19.81
74552;BME280;63025;55.472;38.432;2023-05-10T11:35:11;100925.25;;;21.51;20.07
74552;BME280;63025;55.472;38.432;2023-05-10T11:37:38;100918.63;;;20.94;19.77
74552;BME280;63025;55.472;38.432;2023-05-10T11:40:09;100916.41;;;20.69;20.77
74552;BME280;63025;55.472;38.432;2023-05-10T11:42:38;100919.03;;;20.59;21.53
74552;BME280;63025;55.472;38.432;2023-05-10T11:45:05;100913.41;;;20.92;21.67
74552;BME280;63025;55.472;38.432;2023-05-10T11:47:31;100916.56;;;21.06;20.87
74552;BME280;63025;55.472;38.432;2023-05-10T11:49:57;100924.78;;;21.06;21.40
74552;BME280;63025;55.472;38.432;2023-05-10T11:52:24;100918.47;;;21.05;21.18
74552;BME280;63025;55.472;38.432;2023-05-10T11:54:53;100912.72;;;21.29;21.46
74552;BME280;63025;55.472;38.432;2023-05-10T11:57:25;100909.78;;;21.35;20.87
74552;BME280;63025;55.472;38.432;2023-05-10T11:59:56;100897.59;;;21.80;19.88
74552;BME280;63025;55.472;38.432;2023-05-10T12:02:22;100904.44;;;22.24;20.09
74552;BME280;63025;55.472;38.432;2023-05-10T12:04:49;100899.16;;;22.13;20.28
74552;BME280;63025;55.472;38.432;2023-05-10T12:07:16;100903.16;;;21.95;20.33
74552;BME280;63025;55.472;38.432;2023-05-10T12:10:02;100897.84;;;21.78;21.00
74552;BME280;63025;55.472;38.432;2023-05-10T12:12:46;100889.91;;;21.82;20.74
74552;BME280;63025;55.472;38.432;2023-05-10T12:15:21;100883.09;;;21.84;19.99
74552;BME280;63025;55.472;38.432;2023-05-10T12:17:48;100895.28;;;21.99;20.26
74552;BME280;63025;55.472;38.432;2023-05-10T12:20:21;100889.06;;;21.76;19.68
74552;BME280;63025;55.472;38.432;2023-05-10T12:22:50;100880.25;;;21.69;19.81
74552;BME280;63025;55.472;38.432;2023-05-10T12:25:20;100882.50;;;21.77;20.64
74552;BME280;63025;55.472;38.432;2023-05-10T12:27:57;100880.38;;;21.20;20.22
74552;BME280;63025;55.472;38.432;2023-05-10T12:30:28;100889.56;;;20.87;20.75
74552;BME280;63025;55.472;38.432;2023-05-10T12:33:07;100881.53;;;20.76;20.76
74552;BME280;63025;55.472;38.432;2023-05-10T12:35:38;100873.78;;;20.46;21.13
74552;BME280;63025;55.472;38.432;2023-05-10T12:38:35;100878.53;;;20.12;21.84
74552;BME280;63025;55.472;38.432;2023-05-10T12:41:04;100872.97;;;20.07;22.35
74552;BME280;63025;55.472;38.432;2023-05-10T12:43:31;100874.13;;;20.11;22.44
74552;BME280;63025;55.472;38.432;2023-05-10T12:45:57;100866.94;;;20.05;22.34
74552;BME280;63025;55.472;38.432;2023-05-10T12:48:24;100866.25;;;19.76;22.20
74552;BME280;63025;55.472;38.432;2023-05-10T12:50:50;100865.75;;;19.46;22.52
74552;BME280;63025;55.472;38.432;2023-05-10T12:53:16;100867.78;;;19.22;22.75
74552;BME280;63025;55.472;38.432;2023-05-10T12:55:43;100875.66;;;19.35;23.28
74552;BME280;63025;55.472;38.432;2023-05-10T12:58:10;100873.56;;;19.42;23.15
74552;BME280;63025;55.472;38.432;2023-05-10T13:00:36;100871.97;;;19.13;23.17
74552;BME280;63025;55.472;38.432;2023-05-10T13:03:04;100863.22;;;19.11;22.40
74552;BME280;63025;55.472;38.432;2023-05-10T13:05:33;100867.72;;;19.17;22.45
74552;BME280;63025;55.472;38.432;2023-05-10T13:07:59;100857.41;;;19.19;22.96
74552;BME280;63025;55.472;38.432;2023-05-10T13:10:26;100859.59;;;19.22;23.19
74552;BME280;63025;55.472;38.432;2023-05-10T13:12:51;100856.41;;;19.25;23.54
74552;BME280;63025;55.472;38.432;2023-05-10T13:15:17;100857.47;;;19.24;23.60
74552;BME280;63025;55.472;38.432;2023-05-10T13:17:43;100855.66;;;19.29;23.49
74552;BME280;63025;55.472;38.432;2023-05-10T13:20:11;100850.94;;;19.41;22.85
74552;BME280;63025;55.472;38.432;2023-05-10T13:22:37;100855.16;;;19.32;22.49
74552;BME280;63025;55.472;38.432;2023-05-10T13:25:03;100847.47;;;19.46;22.99
74552;BME280;63025;55.472;38.432;2023-05-10T13:27:29;100849.38;;;19.46;22.91
74552;BME280;63025;55.472;38.432;2023-05-10T13:29:55;100851.75;;;19.42;22.62
74552;BME280;63025;55.472;38.432;2023-05-10T13:32:21;100853.75;;;19.47;22.30